Time;durP1;ratioP1;P1;durP2;ratioP2;P2;SDS_P1;SDS_P2;PMS_P1;PMS_P2;Temp;Humidity;BMP_temperature;BMP_pressure;BME280_temperature;BME280_humidity;BME280_pressure;Samples;Min_cycle;Max_cycle;Signal;HPM_P1;HPM_P2
2023/07/13 00:02:16;;;;;;;;;1.00;1.00;;;;;21.37;44.70;100992.66;5036825;28;45652;-79
2023/07/13 00:04:41;;;;;;;;;2.50;1.50;;;;;21.35;44.66;100982.16;5036901;28;46098;-83
2023/07/13 00:07:08;;;;;;;;;2.00;1.00;;;;;21.37;44.49;100997.16;5037105;28;45805;-79
2023/07/13 00:09:34;;;;;;;;;1.75;1.75;;;;;21.29;44.58;100992.66;5038076;28;45583;-87
2023/07/13 00:11:59;;;;;;;;;3.00;2.00;;;;;21.27;44.77;101003.47;5038095;28;46367;-79
2023/07/13 00:14:27;;;;;;;;;2.00;1.25;;;;;21.24;44.80;100993.16;5039344;28;45845;-81
2023/07/13 00:20:13;;;;;;;;;3.00;2.00;;;;;21.15;44.86;100999.50;5037169;28;45827;-78
2023/07/13 00:22:39;;;;;;;;;1.50;1.00;;;;;21.15;45.25;101004.00;5036792;28;45611;-81
2023/07/13 00:25:05;;;;;;;;;1.00;1.00;;;;;21.12;45.07;100999.78;5037078;28;45580;-84
2023/07/13 00:27:31;;;;;;;;;2.00;1.00;;;;;21.11;45.26;100997.28;5036729;28;45476;-83
2023/07/13 00:29:58;;;;;;;;;2.00;2.00;;;;;21.08;44.91;101008.28;5036217;28;45532;-82
2023/07/13 00:32:25;;;;;;;;;2.50;1.50;;;;;21.08;45.53;101002.97;5036639;28;45574;-83
2023/07/13 00:34:50;;;;;;;;;1.75;1.75;;;;;21.06;45.42;100999.63;5037121;28;45815;-79
2023/07/13 00:37:16;;;;;;;;;1.25;1.00;;;;;21.05;44.87;101009.47;5037318;28;45535;-83
2023/07/13 00:39:41;;;;;;;;;1.00;1.00;;;;;21.01;44.98;101008.13;5036476;28;45696;-82
2023/07/13 00:42:07;;;;;;;;;1.75;1.75;;;;;20.96;45.72;101007.78;5036631;28;45626;-80
2023/07/13 00:44:33;;;;;;;;;3.00;1.00;;;;;20.97;45.96;101013.97;5036693;28;45527;-80
2023/07/13 00:50:22;;;;;;;;;2.50;2.00;;;;;20.90;45.44;101016.44;5036711;28;45542;-81
2023/07/13 00:52:53;;;;;;;;;1.25;1.00;;;;;20.87;45.96;101014.97;5036518;28;46302;-81
2023/07/13 00:55:20;;;;;;;;;1.75;1.75;;;;;20.86;46.32;101017.78;5034926;28;46745;-83
2023/07/13 00:57:46;;;;;;;;;2.25;1.50;;;;;20.85;46.13;101018.78;5036397;28;45490;-79
2023/07/13 01:00:13;;;;;;;;;1.50;1.25;;;;;20.85;45.84;101018.78;5036287;28;45706;-81
2023/07/13 01:02:41;;;;;;;;;2.00;1.75;;;;;20.82;45.89;101016.44;5036443;28;45596;-82
2023/07/13 01:05:11;;;;;;;;;4.00;1.00;;;;;20.82;46.16;101027.94;5037026;28;45897;-79
2023/07/13 01:07:37;;;;;;;;;2.00;1.00;;;;;20.78;46.12;101015.13;5036476;28;45644;-77
2023/07/13 01:10:38;;;;;;;;;1.00;1.00;;;;;20.79;46.25;101022.09;5036543;28;45680;-79
2023/07/13 01:13:05;;;;;;;;;2.25;1.00;;;;;20.77;46.32;101032.09;5035679;28;46297;-78
2023/07/13 01:15:41;;;;;;;;;1.50;1.25;;;;;20.77;46.22;101035.59;5035831;28;45916;-80
2023/07/13 01:18:14;;;;;;;;;1.00;1.00;;;;;20.78;46.27;101031.09;5035624;28;45942;-79
2023/07/13 01:20:40;;;;;;;;;1.75;1.00;;;;;20.74;46.45;101024.41;5036177;28;45671;-84
2023/07/13 01:23:08;;;;;;;;;1.50;1.00;;;;;20.74;46.45;101035.91;5036299;28;45580;-83
2023/07/13 01:25:35;;;;;;;;;2.00;1.50;;;;;20.72;46.39;101037.09;5035559;28;45590;-79
2023/07/13 01:28:02;;;;;;;;;3.50;2.00;;;;;20.72;46.52;101037.09;5035656;28;45583;-77
2023/07/13 01:30:28;;;;;;;;;1.75;1.75;;;;;20.69;46.51;101038.22;5035784;28;45444;-82
2023/07/13 01:32:54;;;;;;;;;2.25;1.25;;;;;20.65;46.30;101033.41;5035600;28;46370;-79
2023/07/13 01:35:19;;;;;;;;;2.25;1.00;;;;;20.61;46.27;101030.25;5036036;28;45949;-79
2023/07/13 01:37:44;;;;;;;;;1.00;1.00;;;;;20.60;46.33;101043.72;5034922;28;45637;-81
2023/07/13 01:40:12;;;;;;;;;2.00;1.25;;;;;20.56;46.64;101050.38;5035662;28;45919;-79
2023/07/13 01:42:38;;;;;;;;;1.00;1.00;;;;;20.52;46.90;101050.69;5035921;28;46487;-79
2023/07/13 01:45:03;;;;;;;;;2.50;1.75;;;;;20.50;46.54;101046.53;5036213;28;46448;-79
2023/07/13 01:50:50;;;;;;;;;2.75;1.00;;;;;20.40;46.41;101048.50;5035807;28;45480;-80
2023/07/13 01:53:16;;;;;;;;;1.75;1.75;;;;;20.34;46.38;101054.47;5036225;28;46440;-78
2023/07/13 01:55:42;;;;;;;;;1.00;1.00;;;;;20.26;47.02;101049.91;5036162;28;46501;-78
2023/07/13 01:58:07;;;;;;;;;1.00;1.00;;;;;20.22;47.07;101045.06;5037222;28;45564;-79
2023/07/13 02:00:33;;;;;;;;;1.00;1.00;;;;;20.20;46.69;101055.84;5036608;28;45622;-79
2023/07/13 02:06:20;;;;;;;;;1.00;0.00;;;;;20.15;46.55;101055.50;5037099;28;45560;-82
2023/07/13 02:08:46;;;;;;;;;1.75;1.00;;;;;20.13;46.57;101051.34;5035039;28;45597;-81
2023/07/13 02:11:11;;;;;;;;;1.25;1.00;;;;;20.08;46.67;101055.31;5035402;28;45655;-84
2023/07/13 02:13:37;;;;;;;;;0.75;0.75;;;;;20.04;46.39;101045.97;5036234;28;46547;-79
2023/07/13 02:16:02;;;;;;;;;1.50;1.00;;;;;20.04;46.33;101053.13;5035477;28;46138;-81
2023/07/13 02:18:28;;;;;;;;;1.00;1.00;;;;;20.01;46.42;101048.97;5035409;28;45669;-79
2023/07/13 02:20:53;;;;;;;;;2.25;1.75;;;;;19.95;46.32;101044.28;5035338;28;45614;-79
2023/07/13 02:23:18;;;;;;;;;2.00;1.00;;;;;19.93;46.10;101058.72;5035366;28;45823;-82
2023/07/13 02:25:45;;;;;;;;;1.00;1.00;;;;;19.91;46.25;101058.06;5035425;28;45727;-85
2023/07/13 02:28:11;;;;;;;;;2.00;1.00;;;;;19.90;46.35;101057.22;5035798;28;45673;-78
2023/07/13 02:30:38;;;;;;;;;1.25;1.00;;;;;19.88;46.64;101051.22;5035093;28;45564;-78
2023/07/13 02:37:05;;;;;;;;;1.00;1.00;;;;;19.91;46.42;101039.44;5030860;28;46054;-89
2023/07/13 02:39:32;;;;;;;;;1.75;1.00;;;;;19.86;46.42;101029.28;5036092;28;45600;-83
2023/07/13 02:41:59;;;;;;;;;2.00;1.50;;;;;19.93;46.84;101032.97;5035971;28;45451;-84
2023/07/13 02:44:24;;;;;;;;;0.00;0.00;;;;;19.95;46.20;101048.78;5034982;28;45573;-80
2023/07/13 02:46:49;;;;;;;;;1.25;1.00;;;;;19.92;46.85;101044.59;5034772;28;45582;-79
2023/07/13 02:49:15;;;;;;;;;0.25;0.00;;;;;19.93;46.32;101038.28;5034182;28;45526;-77
2023/07/13 02:51:40;;;;;;;;;0.75;0.75;;;;;19.96;46.44;101045.97;5034654;28;45760;-83
2023/07/13 02:54:08;;;;;;;;;1.50;1.00;;;;;19.94;46.51;101047.09;5034786;28;45466;-78
2023/07/13 02:56:33;;;;;;;;;1.00;0.50;;;;;19.96;46.36;101047.78;5034707;28;46036;-82
2023/07/13 02:58:59;;;;;;;;;0.25;0.25;;;;;19.94;46.43;101047.94;5034596;28;45533;-82
2023/07/13 03:01:25;;;;;;;;;1.00;1.00;;;;;19.93;46.40;101040.09;5034404;28;45787;-79
2023/07/13 03:03:51;;;;;;;;;1.00;1.00;;;;;19.93;46.38;101048.91;5033974;28;46532;-78
2023/07/13 03:06:17;;;;;;;;;2.00;1.00;;;;;19.88;46.48;101039.75;5034556;28;45536;-80
2023/07/13 03:08:44;;;;;;;;;1.50;1.00;;;;;19.93;46.53;101054.25;5034735;28;45625;-79
2023/07/13 03:11:15;;;;;;;;;0.50;0.50;;;;;19.89;46.51;101054.72;5034589;28;45508;-78
2023/07/13 03:13:41;;;;;;;;;1.00;1.00;;;;;19.90;46.42;101054.56;5035150;28;46525;-78
2023/07/13 03:16:08;;;;;;;;;1.25;1.25;;;;;19.89;46.65;101055.56;5034680;28;46751;-78
2023/07/13 03:21:55;;;;;;;;;1.75;1.75;;;;;19.90;46.82;101059.88;5034767;28;45649;-76
2023/07/13 03:24:23;;;;;;;;;1.25;0.75;;;;;19.91;46.46;101058.91;5035083;28;45769;-79
2023/07/13 03:26:48;;;;;;;;;2.00;1.00;;;;;19.91;46.46;101066.03;5033798;28;45929;-79
2023/07/13 03:29:14;;;;;;;;;2.00;1.00;;;;;19.88;46.88;101058.38;5033960;28;45569;-82
2023/07/13 03:31:40;;;;;;;;;2.00;1.00;;;;;19.88;46.64;101059.19;5033878;28;45770;-82
2023/07/13 03:34:05;;;;;;;;;1.00;1.00;;;;;19.84;47.05;101057.84;5034098;28;46435;-82
2023/07/13 03:36:32;;;;;;;;;2.00;1.00;;;;;19.86;47.00;101066.53;5032353;28;47138;-79
2023/07/13 03:39:00;;;;;;;;;1.00;1.00;;;;;19.85;46.94;101072.81;5033949;28;45575;-80
2023/07/13 03:41:26;;;;;;;;;1.00;1.00;;;;;19.84;47.33;101075.63;5033766;28;45589;-84
2023/07/13 03:43:52;;;;;;;;;1.00;0.25;;;;;19.80;47.44;101068.97;5033509;28;45629;-81
2023/07/13 03:46:18;;;;;;;;;1.00;1.00;;;;;19.77;47.64;101078.09;5033609;28;45682;-78
2023/07/13 03:52:06;;;;;;;;;0.50;0.50;;;;;19.70;47.58;101075.22;5033160;28;45611;-82
2023/07/13 03:54:32;;;;;;;;;2.00;1.00;;;;;19.66;47.99;101067.72;5033629;28;46330;-78
2023/07/13 03:56:58;;;;;;;;;1.75;1.75;;;;;19.70;48.31;101071.75;5033775;28;45653;-81
2023/07/13 03:59:23;;;;;;;;;3.00;1.50;;;;;19.67;48.13;101070.22;5034019;28;45553;-80
2023/07/13 04:01:48;;;;;;;;;0.00;0.00;;;;;19.63;48.37;101068.03;5036790;28;45562;-82
2023/07/13 04:04:15;;;;;;;;;0.25;0.25;;;;;19.63;48.68;101071.53;5039246;28;45568;-81
2023/07/13 04:06:41;;;;;;;;;0.00;0.00;;;;;19.61;48.58;101073.50;5038787;28;45944;-83
2023/07/13 04:09:06;;;;;;;;;2.00;1.00;;;;;19.60;48.75;101084.28;5038495;28;45520;-80
2023/07/13 04:11:32;;;;;;;;;2.00;1.00;;;;;19.58;49.00;101084.44;5039076;28;45797;-83
2023/07/13 04:13:58;;;;;;;;;2.00;1.00;;;;;19.56;48.64;101094.41;5037871;28;46379;-79
2023/07/13 04:16:24;;;;;;;;;1.00;1.00;;;;;19.54;48.90;101092.91;5036445;28;47071;-79
2023/07/13 04:22:11;;;;;;;;;0.00;0.00;;;;;19.48;49.36;101090.84;5037995;28;45521;-77
2023/07/13 04:24:37;;;;;;;;;1.00;0.75;;;;;19.45;49.34;101097.31;5037942;28;46765;-79
2023/07/13 04:27:02;;;;;;;;;1.00;0.25;;;;;19.42;49.51;101091.44;5037734;28;47286;-80
2023/07/13 04:29:28;;;;;;;;;1.00;1.00;;;;;19.40;50.21;101088.09;5040426;28;45678;-81
2023/07/13 04:31:53;;;;;;;;;0.75;0.75;;;;;19.40;49.92;101099.56;5040447;28;45615;-79
2023/07/13 04:37:40;;;;;;;;;2.25;1.00;;;;;19.38;49.93;101112.16;5028579;28;45809;-79
2023/07/13 04:40:11;;;;;;;;;1.00;1.00;;;;;19.36;50.54;101100.84;5040424;28;45545;-80
2023/07/13 04:42:37;;;;;;;;;2.00;2.00;;;;;19.38;49.87;101106.03;5042025;28;45410;-79
2023/07/13 04:45:03;;;;;;;;;1.00;1.00;;;;;19.40;50.05;101102.22;5041023;28;46323;-79
2023/07/13 04:47:30;;;;;;;;;1.00;1.00;;;;;19.40;50.15;101104.03;5037896;28;47321;-80
2023/07/13 04:49:57;;;;;;;;;2.75;1.50;;;;;19.44;50.58;101103.56;5038905;28;45614;-83
2023/07/13 04:52:23;;;;;;;;;3.00;1.75;;;;;19.45;50.36;101105.28;5040101;28;45718;-81
2023/07/13 04:54:48;;;;;;;;;1.00;1.00;;;;;19.46;50.49;101114.94;5038584;28;46857;-80
2023/07/13 04:57:14;;;;;;;;;1.00;1.00;;;;;19.51;50.63;101112.63;5040314;28;46264;-79
2023/07/13 04:59:39;;;;;;;;;1.75;1.00;;;;;19.50;50.97;101107.47;5038997;28;45543;-81
2023/07/13 05:02:05;;;;;;;;;2.00;1.00;;;;;19.53;51.17;101102.69;5041443;28;45780;-80
2023/07/13 05:07:53;;;;;;;;;1.00;1.00;;;;;19.53;50.84;101107.19;5038524;28;45666;-83
2023/07/13 05:10:19;;;;;;;;;2.00;2.00;;;;;19.55;51.01;101115.81;5036825;28;45596;-81
2023/07/13 05:12:45;;;;;;;;;2.00;2.00;;;;;19.53;51.46;101117.81;5036071;28;45932;-79
2023/07/13 05:15:10;;;;;;;;;1.25;1.00;;;;;19.52;51.19;101113.47;5037355;28;46374;-82
2023/07/13 05:17:36;;;;;;;;;2.50;2.00;;;;;19.53;51.52;101113.31;5036475;28;48294;-82
2023/07/13 05:20:01;;;;;;;;;1.00;1.00;;;;;19.52;51.40;101111.66;5040060;28;45661;-83
2023/07/13 05:22:27;;;;;;;;;3.00;1.00;;;;;19.50;51.29;101112.78;5036448;28;45550;-82
2023/07/13 05:24:52;;;;;;;;;2.50;1.00;;;;;19.46;51.46;101114.09;5035384;28;45949;-79
2023/07/13 05:27:17;;;;;;;;;1.75;1.75;;;;;19.45;51.39;101115.91;5035810;28;45532;-78
2023/07/13 05:29:43;;;;;;;;;2.00;1.25;;;;;19.45;51.09;101125.69;5035947;28;45591;-78
2023/07/13 05:32:08;;;;;;;;;2.00;1.50;;;;;19.44;52.07;101130.16;5035819;28;45738;-78
2023/07/13 05:37:55;;;;;;;;;0.50;0.50;;;;;19.43;51.64;101130.31;5032900;28;45770;-77
2023/07/13 05:40:20;;;;;;;;;2.00;1.25;;;;;19.43;52.00;101131.16;5034638;28;45700;-78
2023/07/13 05:42:46;;;;;;;;;1.00;1.00;;;;;19.45;52.04;101125.69;5050495;28;45782;-78
2023/07/13 05:45:11;;;;;;;;;1.50;1.50;;;;;19.46;52.01;101132.69;5034956;28;45579;-76
2023/07/13 05:47:36;;;;;;;;;1.25;1.00;;;;;19.49;51.24;101137.69;5034496;28;45693;-79
2023/07/13 05:53:23;;;;;;;;;4.00;2.00;;;;;19.56;51.69;101139.59;5034814;28;45799;-76
2023/07/13 05:55:56;;;;;;;;;2.50;1.00;;;;;19.61;51.64;101139.13;5035342;28;45539;-77
2023/07/13 05:58:22;;;;;;;;;2.75;2.00;;;;;19.65;51.10;101135.16;5035791;28;45970;-76
2023/07/13 06:00:48;;;;;;;;;1.00;1.00;;;;;19.65;51.71;101132.50;5034884;28;45532;-77
2023/07/13 06:03:14;;;;;;;;;3.00;3.00;;;;;19.66;51.50;101134.16;5035114;28;45791;-76
2023/07/13 06:05:39;;;;;;;;;2.00;2.00;;;;;19.66;51.73;101137.66;5035044;28;46442;-77
2023/07/13 06:08:08;;;;;;;;;3.00;2.50;;;;;19.67;51.55;101141.16;5033116;28;47278;-77
2023/07/13 06:10:35;;;;;;;;;1.00;1.00;;;;;19.67;51.21;101146.47;5034104;28;45603;-76
2023/07/13 06:13:00;;;;;;;;;1.25;1.25;;;;;19.66;51.32;101152.78;5033015;28;46009;-77
2023/07/13 06:15:25;;;;;;;;;2.75;1.75;;;;;19.65;51.45;101146.63;5034690;28;45586;-76
2023/07/13 06:17:51;;;;;;;;;3.00;1.50;;;;;19.70;51.73;101159.47;5034573;28;45598;-76
2023/07/13 06:23:38;;;;;;;;;2.00;2.00;;;;;19.72;51.90;101162.81;5033923;28;45602;-75
2023/07/13 06:26:05;;;;;;;;;2.75;1.50;;;;;19.73;51.94;101160.97;5034498;28;45581;-76
2023/07/13 06:28:31;;;;;;;;;2.50;2.00;;;;;19.75;51.84;101170.50;5034433;28;46449;-76
2023/07/13 06:30:57;;;;;;;;;1.00;1.00;;;;;19.79;51.69;101179.81;5034425;28;45506;-75
2023/07/13 06:33:23;;;;;;;;;2.00;2.00;;;;;19.80;51.66;101154.06;5034545;28;45645;-75
2023/07/13 06:35:48;;;;;;;;;2.50;2.00;;;;;19.84;51.54;101171.38;5034383;28;46370;-75
2023/07/13 06:38:14;;;;;;;;;2.75;2.00;;;;;19.86;51.57;101178.22;5034073;28;46186;-77
2023/07/13 06:40:39;;;;;;;;;2.00;1.50;;;;;19.89;51.75;101167.25;5034206;28;45675;-76
2023/07/13 06:43:04;;;;;;;;;3.50;2.00;;;;;19.94;51.92;101172.09;5034341;28;45671;-75
2023/07/13 06:45:30;;;;;;;;;2.00;1.00;;;;;19.96;51.61;101178.13;5034133;28;46407;-75
2023/07/13 06:47:55;;;;;;;;;1.25;0.00;;;;;19.93;51.37;101171.28;5034297;28;45738;-76
2023/07/13 06:53:43;;;;;;;;;1.75;1.00;;;;;19.96;52.01;101175.47;5034012;28;45572;-75
2023/07/13 06:56:10;;;;;;;;;2.00;2.00;;;;;19.94;52.42;101175.59;5034214;28;45605;-76
2023/07/13 06:58:36;;;;;;;;;2.00;2.00;;;;;19.95;52.50;101174.63;5033947;28;46335;-75
2023/07/13 07:01:01;;;;;;;;;2.75;2.00;;;;;19.97;52.53;101171.81;5033730;28;45629;-75
2023/07/13 07:03:26;;;;;;;;;2.00;2.00;;;;;19.97;52.78;101177.94;5034150;28;45614;-75
2023/07/13 07:05:52;;;;;;;;;2.00;2.00;;;;;19.95;52.45;101179.94;5032432;28;47483;-75
2023/07/13 07:08:17;;;;;;;;;3.75;3.75;;;;;19.97;52.47;101188.59;5033469;28;45510;-75
2023/07/13 07:10:42;;;;;;;;;2.00;2.00;;;;;19.96;52.77;101188.75;5033570;28;45544;-75
2023/07/13 07:13:08;;;;;;;;;4.00;2.75;;;;;19.95;52.95;101181.75;5033707;28;45526;-75
2023/07/13 07:15:35;;;;;;;;;2.75;1.50;;;;;19.95;53.05;101187.91;5033497;28;47425;-75
2023/07/13 07:18:00;;;;;;;;;3.00;2.00;;;;;19.95;53.20;101187.91;5033428;28;47565;-74
2023/07/13 07:24:03;;;;;;;;;3.00;3.00;;;;;19.98;53.36;101187.59;5033788;28;45532;-76
2023/07/13 07:26:28;;;;;;;;;3.25;2.25;;;;;20.01;52.90;101197.09;5032130;28;46554;-75
2023/07/13 07:28:53;;;;;;;;;2.00;1.75;;;;;20.03;53.50;101181.81;5033642;28;45971;-75
2023/07/13 07:31:19;;;;;;;;;3.00;2.00;;;;;20.06;53.07;101195.66;5033599;28;45622;-75
2023/07/13 07:33:44;;;;;;;;;2.25;2.25;;;;;20.11;52.87;101195.19;5033837;28;45844;-76
2023/07/13 07:36:11;;;;;;;;;5.00;3.25;;;;;20.13;53.23;101206.50;5034248;28;46418;-76
2023/07/13 07:38:37;;;;;;;;;5.25;3.00;;;;;20.15;53.27;101201.84;5036585;28;47295;-76
2023/07/13 07:41:04;;;;;;;;;3.00;2.00;;;;;20.18;53.29;101203.38;5035638;28;45574;-75
2023/07/13 07:43:31;;;;;;;;;3.00;2.25;;;;;20.23;53.37;101207.25;5037187;28;45866;-76
2023/07/13 07:45:56;;;;;;;;;2.50;2.25;;;;;20.30;53.54;101199.44;5036853;28;45491;-75
2023/07/13 07:48:21;;;;;;;;;4.00;2.25;;;;;20.34;53.24;101199.03;5036877;28;45794;-75
2023/07/13 07:54:08;;;;;;;;;4.00;3.00;;;;;20.42;53.44;101209.69;5036712;28;45561;-76
2023/07/13 07:56:34;;;;;;;;;4.00;4.00;;;;;20.43;53.46;101219.38;5036854;28;45657;-74
2023/07/13 07:58:59;;;;;;;;;4.25;3.00;;;;;20.44;53.22;101212.22;5036809;28;46404;-74
2023/07/13 08:01:24;;;;;;;;;3.25;3.00;;;;;20.44;53.36;101218.38;5034860;28;45571;-76
2023/07/13 08:03:50;;;;;;;;;4.25;3.50;;;;;20.47;53.27;101219.88;5036675;28;45524;-76
2023/07/13 08:06:16;;;;;;;;;3.00;3.00;;;;;20.51;53.25;101218.59;5036102;28;46710;-76
2023/07/13 08:08:41;;;;;;;;;4.00;3.00;;;;;20.55;53.26;101209.28;5036675;28;45579;-76
2023/07/13 08:11:08;;;;;;;;;3.00;3.00;;;;;20.62;53.31;101217.47;5036747;28;45548;-76
2023/07/13 08:13:34;;;;;;;;;2.25;2.25;;;;;20.67;53.13;101218.66;5036743;28;45817;-74
2023/07/13 08:16:00;;;;;;;;;2.75;2.50;;;;;20.73;52.87;101210.00;5036203;28;46530;-74
2023/07/13 08:18:27;;;;;;;;;3.00;2.50;;;;;20.81;53.13;101215.38;5036049;28;46845;-74
2023/07/13 08:24:14;;;;;;;;;2.00;2.00;;;;;20.97;52.58;101219.94;5036305;28;45588;-75
2023/07/13 08:26:40;;;;;;;;;3.00;3.00;;;;;21.00;52.25;101224.13;5036441;28;45789;-75
2023/07/13 08:29:05;;;;;;;;;2.00;2.00;;;;;21.01;52.41;101218.63;5036012;28;47516;-74
2023/07/13 08:31:30;;;;;;;;;3.00;2.00;;;;;21.01;51.73;101223.94;5036211;28;45921;-74
2023/07/13 08:33:56;;;;;;;;;3.25;3.00;;;;;21.01;52.02;101221.28;5036520;28;45563;-74
2023/07/13 08:36:21;;;;;;;;;2.00;2.00;;;;;21.02;51.48;101219.44;5034478;28;47359;-76
2023/07/13 08:38:46;;;;;;;;;4.00;3.00;;;;;21.01;51.57;101217.78;5035796;28;46524;-76
2023/07/13 08:41:16;;;;;;;;;1.75;1.75;;;;;21.04;51.16;101218.31;5036130;28;45625;-73
2023/07/13 08:43:48;;;;;;;;;2.75;2.00;;;;;21.10;50.98;101216.81;5036347;28;45480;-74
2023/07/13 08:46:37;;;;;;;;;3.25;2.00;;;;;21.10;50.95;101216.81;5035661;28;47374;-75
2023/07/13 08:49:13;;;;;;;;;3.00;3.00;;;;;21.13;50.68;101216.50;5036063;28;46260;-74
2023/07/13 08:51:59;;;;;;;;;1.50;1.00;;;;;21.19;50.47;101216.72;5035628;28;45768;-74
2023/07/13 08:54:31;;;;;;;;;1.50;1.50;;;;;21.25;50.86;101215.22;5035910;28;45547;-77
2023/07/13 08:56:58;;;;;;;;;2.50;2.00;;;;;21.31;50.20;101209.25;5035971;28;45457;-75
2023/07/13 08:59:28;;;;;;;;;2.75;1.50;;;;;21.38;49.62;101212.09;5035836;28;46386;-75
2023/07/13 09:02:25;;;;;;;;;2.25;1.00;;;;;21.46;48.95;101220.94;5035502;28;45647;-75
2023/07/13 09:04:59;;;;;;;;;3.50;3.00;;;;;21.50;48.57;101224.09;5032797;28;46014;-74
2023/07/13 09:07:34;;;;;;;;;0.75;0.75;;;;;21.57;48.58;101220.63;5035452;28;47983;-74
2023/07/13 09:10:15;;;;;;;;;1.25;0.75;;;;;21.64;47.96;101224.28;5035383;28;45801;-74
2023/07/13 09:12:53;;;;;;;;;1.75;0.75;;;;;21.71;47.90;101227.09;5034114;28;45701;-74
2023/07/13 09:15:32;;;;;;;;;1.75;1.75;;;;;21.71;47.66;101217.28;5035802;28;45924;-74
2023/07/13 09:18:23;;;;;;;;;2.50;1.75;;;;;21.74;47.75;101211.63;5035654;28;46520;-74
2023/07/13 09:20:54;;;;;;;;;1.75;1.75;;;;;21.78;47.15;101212.13;5035185;28;46366;-76
2023/07/13 09:23:22;;;;;;;;;3.75;1.75;;;;;21.83;47.01;101212.44;5035553;28;45649;-76
2023/07/13 09:25:55;;;;;;;;;3.00;1.50;;;;;21.94;46.84;101213.94;5035665;28;45657;-76
2023/07/13 09:28:27;;;;;;;;;2.00;1.00;;;;;22.01;46.49;101213.16;5033926;28;46734;-76
2023/07/13 09:31:01;;;;;;;;;2.50;2.50;;;;;22.05;46.39;101206.47;5035412;28;45827;-74
2023/07/13 09:33:29;;;;;;;;;1.75;0.75;;;;;22.04;46.47;101207.47;5035342;28;45520;-74
2023/07/13 09:35:57;;;;;;;;;1.75;1.00;;;;;22.05;45.71;101213.63;5035077;28;45633;-74
2023/07/13 09:38:26;;;;;;;;;2.00;1.00;;;;;22.06;45.55;101215.31;5034819;28;45592;-74
2023/07/13 09:40:52;;;;;;;;;0.75;0.75;;;;;22.04;44.72;101215.47;5034881;28;46456;-74
2023/07/13 09:43:20;;;;;;;;;2.00;1.00;;;;;22.02;44.37;101217.50;5033573;28;45753;-74
2023/07/13 09:45:47;;;;;;;;;2.00;2.00;;;;;22.01;44.50;101212.31;5035122;28;45544;-74
2023/07/13 09:48:14;;;;;;;;;2.25;1.00;;;;;22.00;45.00;101232.81;5035017;28;46418;-75
2023/07/13 09:50:41;;;;;;;;;1.00;1.00;;;;;22.01;45.17;101228.31;5034784;28;45900;-74
2023/07/13 09:53:19;;;;;;;;;2.00;1.00;;;;;22.01;45.14;101225.66;5034809;28;45536;-75
2023/07/13 09:55:46;;;;;;;;;2.00;1.00;;;;;22.03;45.44;101226.31;5034768;28;45590;-76
2023/07/13 09:58:19;;;;;;;;;2.75;1.25;;;;;22.04;45.13;101222.63;5034558;28;45579;-76
2023/07/13 10:00:55;;;;;;;;;1.50;1.50;;;;;22.07;45.17;101225.81;5034339;28;46265;-74
2023/07/13 10:03:26;;;;;;;;;2.50;1.50;;;;;22.12;45.74;101227.97;5033331;28;45684;-76
2023/07/13 10:05:52;;;;;;;;;1.00;1.00;;;;;22.16;45.71;101221.28;5034807;28;45900;-77
2023/07/13 10:08:27;;;;;;;;;2.75;2.00;;;;;22.20;44.96;101225.28;5034729;28;45734;-76
2023/07/13 10:10:58;;;;;;;;;1.25;1.25;;;;;22.22;45.81;101244.66;5034490;28;46230;-76
2023/07/13 10:13:31;;;;;;;;;1.50;1.00;;;;;22.23;45.25;101237.47;5034737;28;45801;-76
2023/07/13 10:15:58;;;;;;;;;1.75;1.25;;;;;22.24;45.12;101236.47;5034865;28;45704;-76
2023/07/13 10:18:25;;;;;;;;;2.00;2.00;;;;;22.24;45.61;101229.28;5034509;28;45864;-76
2023/07/13 10:21:09;;;;;;;;;1.75;1.75;;;;;22.29;45.51;101239.47;5034015;28;46436;-76
2023/07/13 10:23:35;;;;;;;;;1.75;1.75;;;;;22.27;45.06;101241.47;5034653;28;45600;-76
2023/07/13 10:26:01;;;;;;;;;2.00;1.75;;;;;22.28;45.23;101243.97;5034691;28;45615;-76
2023/07/13 10:28:32;;;;;;;;;1.00;1.00;;;;;22.29;45.65;101242.97;5034589;28;45520;-76
2023/07/13 10:31:01;;;;;;;;;1.25;1.25;;;;;22.29;45.35;101242.97;5034279;28;46024;-76
2023/07/13 10:33:26;;;;;;;;;1.50;1.50;;;;;22.33;44.94;101259.47;5034459;28;45670;-76
2023/07/13 10:36:12;;;;;;;;;2.75;1.25;;;;;22.33;44.82;101254.97;5034243;28;45743;-73
2023/07/13 10:38:38;;;;;;;;;1.00;0.75;;;;;22.32;45.27;101264.00;5033988;28;45843;-75
2023/07/13 10:41:10;;;;;;;;;1.25;1.00;;;;;22.32;44.82;101260.47;5033720;28;46891;-76
2023/07/13 10:43:41;;;;;;;;;1.50;1.00;;;;;22.31;44.57;101256.13;5032768;28;45659;-75
2023/07/13 10:46:09;;;;;;;;;2.00;1.75;;;;;22.32;44.92;101258.66;5034441;28;45769;-76
2023/07/13 10:48:37;;;;;;;;;1.00;1.00;;;;;22.31;45.18;101258.81;5034297;28;46444;-76
2023/07/13 10:51:05;;;;;;;;;1.75;1.00;;;;;22.31;44.89;101261.47;5032405;28;47003;-76
2023/07/13 10:53:33;;;;;;;;;1.25;1.00;;;;;22.31;44.81;101273.00;5034067;28;45577;-76
2023/07/13 10:56:02;;;;;;;;;1.75;1.75;;;;;22.34;45.03;101262.00;5034140;28;45764;-76
2023/07/13 10:58:42;;;;;;;;;1.00;1.00;;;;;22.36;45.07;101265.31;5033767;28;46748;-76
2023/07/13 11:01:13;;;;;;;;;1.25;1.25;;;;;22.39;44.87;101264.16;5033946;28;46174;-76
2023/07/13 11:03:58;;;;;;;;;3.25;2.00;;;;;22.41;45.12;101259.44;5034126;28;45672;-76
2023/07/13 11:06:23;;;;;;;;;1.00;1.00;;;;;22.43;44.63;101265.47;5032547;28;45967;-76
2023/07/13 11:08:48;;;;;;;;;2.25;1.00;;;;;22.43;44.58;101260.97;5033989;28;45688;-75
2023/07/13 11:11:32;;;;;;;;;2.75;2.00;;;;;22.44;44.99;101254.63;5034837;28;47428;-76
2023/07/13 11:14:04;;;;;;;;;1.75;1.75;;;;;22.45;44.90;101264.31;5037625;28;45799;-76
2023/07/13 11:16:34;;;;;;;;;1.25;1.25;;;;;22.50;44.58;101261.13;5037352;28;45616;-77
2023/07/13 11:19:02;;;;;;;;;2.00;1.00;;;;;22.54;44.38;101255.28;5037830;28;46034;-74
2023/07/13 11:21:30;;;;;;;;;2.00;1.00;;;;;22.56;44.81;101253.25;5037053;28;45640;-74
2023/07/13 11:24:14;;;;;;;;;1.00;1.00;;;;;22.58;45.09;101242.41;5037166;28;45714;-74
2023/07/13 11:26:40;;;;;;;;;2.00;2.00;;;;;22.64;44.25;101249.72;5037463;28;45586;-76
2023/07/13 11:29:24;;;;;;;;;2.00;1.50;;;;;22.68;44.86;101239.53;5037179;28;46543;-75
2023/07/13 11:31:54;;;;;;;;;2.75;2.00;;;;;22.78;44.79;101240.22;5037194;28;45811;-75
2023/07/13 11:34:33;;;;;;;;;2.00;1.25;;;;;22.87;43.89;101245.34;5037567;28;45627;-76
2023/07/13 11:37:00;;;;;;;;;2.00;2.00;;;;;22.99;44.05;101237.78;5037256;28;45566;-76
2023/07/13 11:39:35;;;;;;;;;1.00;1.00;;;;;23.07;44.22;101221.69;5037155;28;46534;-75
2023/07/13 11:42:12;;;;;;;;;1.00;1.00;;;;;23.14;43.72;101230.69;5036973;28;46270;-75
2023/07/13 11:44:43;;;;;;;;;2.50;2.00;;;;;23.17;43.34;101216.13;5036816;28;45583;-75
2023/07/13 11:47:17;;;;;;;;;1.25;1.25;;;;;23.20;43.28;101219.28;5037373;28;45586;-76
2023/07/13 11:49:47;;;;;;;;;1.00;1.00;;;;;23.27;43.16;101214.03;5036647;28;46485;-75
2023/07/13 11:52:37;;;;;;;;;1.25;1.25;;;;;23.32;43.12;101212.50;5014597;28;45845;-76
2023/07/13 11:55:13;;;;;;;;;2.25;1.00;;;;;23.36;42.99;101216.50;5014731;28;45729;-76
2023/07/13 11:57:44;;;;;;;;;1.00;1.00;;;;;23.41;42.66;101219.47;5014936;28;45609;-75
2023/07/13 12:00:16;;;;;;;;;2.00;1.00;;;;;23.43;42.29;101211.25;5014428;28;45860;-76
2023/07/13 12:02:49;;;;;;;;;1.00;1.00;;;;;23.45;41.99;101214.59;5014346;28;46763;-77
2023/07/13 12:08:42;;;;;;;;;1.00;1.00;;;;;23.51;41.00;101219.28;5014555;28;45620;-76
2023/07/13 12:11:16;;;;;;;;;2.00;1.00;;;;;23.52;40.71;101214.75;5014166;28;46532;-76
2023/07/13 12:13:44;;;;;;;;;0.50;0.50;;;;;23.53;40.85;101209.25;5014703;28;45812;-75
2023/07/13 12:16:16;;;;;;;;;1.00;1.00;;;;;23.58;40.66;101214.06;5014356;28;45670;-76
2023/07/13 12:18:45;;;;;;;;;2.00;1.00;;;;;23.60;41.16;101212.00;5014716;28;45557;-74
2023/07/13 12:24:35;;;;;;;;;1.00;0.25;;;;;23.68;40.77;101207.44;5014221;28;45813;-75
2023/07/13 12:27:03;;;;;;;;;0.00;0.00;;;;;23.72;39.81;101203.38;5014363;28;45636;-74
2023/07/13 12:29:31;;;;;;;;;0.00;0.00;;;;;23.77;39.01;101189.47;5024047;28;45588;-75
2023/07/13 12:31:57;;;;;;;;;0.00;0.00;;;;;23.78;38.74;101194.66;5036242;28;45585;-75
2023/07/13 12:34:25;;;;;;;;;0.25;0.25;;;;;23.84;39.05;101203.81;5035938;28;46257;-73